Time;durP1;ratioP1;P1;durP2;ratioP2;P2;SDS_P1;SDS_P2;PMS_P1;PMS_P2;Temp;Humidity;BMP_temperature;BMP_pressure;BME280_temperature;BME280_humidity;BME280_pressure;Samples;Min_cycle;Max_cycle;Signal;HPM_P1;HPM_P2
2023/09/01 00:00:57;;;;;;;5.57;1.85;;;17.80;64.10;;;;;;4969234;28;20091;-48
2023/09/01 00:03:40;;;;;;;3.63;2.35;;;17.80;64.00;;;;;;4972680;28;20050;-51
2023/09/01 00:06:14;;;;;;;3.00;1.95;;;17.70;63.80;;;;;;4973628;28;20046;-49
2023/09/01 00:08:44;;;;;;;2.83;2.00;;;17.70;64.20;;;;;;4971522;28;20114;-53
2023/09/01 00:11:15;;;;;;;4.05;1.83;;;17.70;63.90;;;;;;4968841;28;20045;-51
2023/09/01 00:13:45;;;;;;;3.42;2.63;;;17.60;63.90;;;;;;4972267;28;20078;-51
2023/09/01 00:16:14;;;;;;;3.75;2.00;;;17.60;64.00;;;;;;4972840;28;20045;-51
2023/09/01 00:18:50;;;;;;;5.35;2.30;;;17.50;64.00;;;;;;4966349;28;20043;-50
2023/09/01 00:21:16;;;;;;;2.65;1.98;;;17.50;64.10;;;;;;4971477;28;20073;-53
2023/09/01 00:23:45;;;;;;;3.88;2.00;;;17.50;64.20;;;;;;4972769;28;20125;-50
2023/09/01 00:26:19;;;;;;;5.50;1.83;;;17.50;64.50;;;;;;4964867;28;20103;-50
2023/09/01 00:28:47;;;;;;;4.50;2.00;;;17.50;65.30;;;;;;4961563;28;20097;-47
2023/09/01 00:31:16;;;;;;;3.38;2.28;;;17.50;64.80;;;;;;4970686;28;20039;-53
2023/09/01 00:33:47;;;;;;;4.72;2.58;;;17.50;65.10;;;;;;4972020;28;20078;-49
2023/09/01 00:36:16;;;;;;;8.63;2.60;;;17.50;65.20;;;;;;4985732;28;20047;-48
2023/09/01 00:38:43;;;;;;;4.07;2.10;;;17.50;65.20;;;;;;4969397;28;20054;-52
2023/09/01 00:41:10;;;;;;;8.10;2.60;;;17.50;65.30;;;;;;4974249;28;20039;-49
2023/09/01 00:43:39;;;;;;;3.17;2.03;;;17.60;65.40;;;;;;4971036;28;20130;-50
2023/09/01 00:46:06;;;;;;;4.05;2.00;;;17.60;65.50;;;;;;4973719;28;20101;-52
2023/09/01 00:48:33;;;;;;;2.90;2.35;;;17.60;65.50;;;;;;4987512;28;20051;-49
2023/09/01 00:51:02;;;;;;;3.50;2.17;;;17.70;65.70;;;;;;4984970;28;20053;-49
2023/09/01 00:53:29;;;;;;;1.92;1.70;;;17.70;65.70;;;;;;4973246;28;20094;-53
2023/09/01 00:55:59;;;;;;;2.58;2.35;;;17.70;65.70;;;;;;4987357;28;20035;-52
2023/09/01 00:58:28;;;;;;;3.60;2.80;;;17.80;65.70;;;;;;4974090;28;20195;-50
2023/09/01 01:00:58;;;;;;;2.35;2.15;;;17.70;65.60;;;;;;4981973;28;20047;-52
2023/09/01 01:03:25;;;;;;;3.67;2.10;;;17.80;65.60;;;;;;4974382;28;20122;-51
2023/09/01 01:06:09;;;;;;;3.67;2.55;;;17.90;65.60;;;;;;4973279;28;20074;-49
2023/09/01 01:09:25;;;;;;;4.03;2.58;;;17.90;65.90;;;;;;4983660;28;20050;-52
2023/09/01 01:12:14;;;;;;;3.28;2.15;;;17.90;65.90;;;;;;4952573;28;20047;-50
2023/09/01 01:14:55;;;;;;;6.60;2.70;;;18.00;66.00;;;;;;4952263;28;20139;-52
2023/09/01 01:17:25;;;;;;;2.60;2.40;;;18.00;66.00;;;;;;4970667;28;20399;-52
2023/09/01 01:20:03;;;;;;;4.30;2.60;;;18.00;65.50;;;;;;4970537;28;20424;-50
2023/09/01 01:22:40;;;;;;;4.60;2.30;;;18.00;66.50;;;;;;4971129;28;20076;-53
2023/09/01 01:25:12;;;;;;;3.42;3.10;;;18.10;66.10;;;;;;4962820;28;20036;-50
2023/09/01 01:27:41;;;;;;;4.82;3.08;;;18.10;65.70;;;;;;4974183;28;20042;-48
2023/09/01 01:30:09;;;;;;;7.22;2.83;;;18.10;65.70;;;;;;4967919;28;20035;-53
2023/09/01 01:32:39;;;;;;;5.10;2.45;;;18.10;65.60;;;;;;4974908;28;20039;-50
2023/09/01 01:35:30;;;;;;;3.13;2.50;;;18.10;65.60;;;;;;4972680;28;20050;-52
2023/09/01 01:38:16;;;;;;;6.20;3.45;;;18.10;65.70;;;;;;4961521;28;20063;-52
2023/09/01 01:40:47;;;;;;;3.65;3.17;;;18.20;65.90;;;;;;4973642;28;20058;-49
2023/09/01 01:43:23;;;;;;;7.55;3.05;;;18.20;65.70;;;;;;4985050;28;20050;-52
2023/09/01 01:45:50;;;;;;;4.68;2.78;;;18.20;65.80;;;;;;4974979;28;20050;-49
2023/09/01 01:48:20;;;;;;;4.55;2.60;;;18.20;65.70;;;;;;4983993;28;20050;-52
2023/09/01 01:50:54;;;;;;;3.40;2.47;;;18.20;65.70;;;;;;4984870;28;20058;-51
2023/09/01 01:53:26;;;;;;;3.28;2.40;;;18.20;66.00;;;;;;4973317;28;20030;-51
2023/09/01 01:55:54;;;;;;;5.15;3.17;;;18.30;66.30;;;;;;4970373;28;20067;-51
2023/09/01 01:58:23;;;;;;;4.25;2.80;;;18.30;66.30;;;;;;4982902;28;20051;-48
2023/09/01 02:00:59;;;;;;;3.42;2.88;;;18.30;66.10;;;;;;4979951;28;20138;-52
2023/09/01 02:03:26;;;;;;;6.38;2.78;;;18.30;66.20;;;;;;4974423;28;20054;-51
2023/09/01 02:05:55;;;;;;;4.28;2.72;;;18.30;66.30;;;;;;4989502;28;20483;-49
2023/09/01 02:08:22;;;;;;;3.85;3.22;;;18.30;66.30;;;;;;4965380;28;20051;-48
2023/09/01 02:10:51;;;;;;;4.07;2.88;;;18.30;66.40;;;;;;4989148;28;20129;-52
2023/09/01 02:13:18;;;;;;;6.80;3.00;;;18.30;66.40;;;;;;4974328;28;20122;-49
2023/09/01 02:15:52;;;;;;;6.03;3.05;;;18.40;66.60;;;;;;4986662;28;20081;-50
2023/09/01 02:18:20;;;;;;;4.72;3.35;;;18.40;67.00;;;;;;4980871;28;20046;-53
2023/09/01 02:20:47;;;;;;;3.17;2.88;;;18.40;66.60;;;;;;4985359;28;20058;-52
2023/09/01 02:23:16;;;;;;;5.93;2.80;;;18.40;66.50;;;;;;4971123;28;20046;-50
2023/09/01 02:25:46;;;;;;;7.32;3.85;;;18.40;66.50;;;;;;4970052;28;20108;-48
2023/09/01 02:28:15;;;;;;;3.88;3.17;;;18.40;66.50;;;;;;4975432;28;20039;-51
2023/09/01 02:30:43;;;;;;;9.15;3.33;;;18.40;66.50;;;;;;4982958;28;20054;-51
2023/09/01 02:33:10;;;;;;;5.22;2.60;;;18.40;66.60;;;;;;4974345;28;20042;-51
2023/09/01 02:35:44;;;;;;;5.40;2.65;;;18.40;66.50;;;;;;4974408;28;20042;-51
2023/09/01 02:38:11;;;;;;;5.30;2.53;;;18.50;66.70;;;;;;4973585;28;20065;-51
2023/09/01 02:40:41;;;;;;;8.27;3.15;;;18.50;66.50;;;;;;4973149;28;20065;-52
2023/09/01 02:43:14;;;;;;;6.45;4.03;;;18.50;66.70;;;;;;4974841;28;20039;-50
2023/09/01 02:45:41;;;;;;;8.63;3.35;;;18.50;67.00;;;;;;4975336;28;20042;-49
2023/09/01 02:48:11;;;;;;;5.20;2.58;;;18.50;66.70;;;;;;4972006;28;20497;-53
2023/09/01 02:50:40;;;;;;;4.63;2.88;;;18.50;66.70;;;;;;4974885;28;20050;-51
2023/09/01 02:53:07;;;;;;;6.90;2.70;;;18.60;66.70;;;;;;4984971;28;20038;-50
2023/09/01 02:55:33;;;;;;;4.13;2.47;;;18.60;66.80;;;;;;4973230;28;20061;-48
2023/09/01 02:58:00;;;;;;;4.85;2.58;;;18.60;66.90;;;;;;4984452;28;20046;-52
2023/09/01 03:00:28;;;;;;;4.20;2.45;;;18.60;67.00;;;;;;4967712;28;20055;-50
2023/09/01 03:02:56;;;;;;;5.50;3.33;;;18.60;67.10;;;;;;4989484;28;20054;-50
2023/09/01 03:05:26;;;;;;;4.70;2.33;;;18.50;67.10;;;;;;4985093;28;20133;-49
2023/09/01 03:07:53;;;;;;;6.10;2.60;;;18.60;67.50;;;;;;4970076;28;20051;-53
2023/09/01 03:10:22;;;;;;;4.35;2.50;;;18.60;67.30;;;;;;4987641;28;20066;-49
2023/09/01 03:12:49;;;;;;;3.30;2.47;;;18.60;67.50;;;;;;4974926;28;20054;-50
2023/09/01 03:15:18;;;;;;;4.88;2.53;;;18.60;67.50;;;;;;4974367;28;20035;-52
2023/09/01 03:17:47;;;;;;;4.63;2.75;;;18.60;67.50;;;;;;4969000;28;20414;-52
2023/09/01 03:20:18;;;;;;;3.47;2.20;;;18.60;67.40;;;;;;4985967;28;20041;-49
2023/09/01 03:22:49;;;;;;;5.40;2.60;;;18.60;67.60;;;;;;4969420;28;20498;-52
2023/09/01 03:25:17;;;;;;;2.60;2.40;;;18.70;67.60;;;;;;4968250;28;20569;-48
2023/09/01 03:27:44;;;;;;;5.47;2.42;;;18.60;67.80;;;;;;4972066;28;20046;-49
2023/09/01 03:30:11;;;;;;;6.80;2.83;;;18.70;67.80;;;;;;4980478;28;20047;-48
2023/09/01 03:32:40;;;;;;;6.20;2.70;;;18.70;67.70;;;;;;4983075;28;20459;-49
2023/09/01 03:35:10;;;;;;;4.68;3.20;;;18.70;67.80;;;;;;4979917;28;20477;-52
2023/09/01 03:37:36;;;;;;;4.57;2.58;;;18.70;67.80;;;;;;4970110;28;20114;-49
2023/09/01 03:40:10;;;;;;;3.38;2.90;;;18.70;67.80;;;;;;4975170;28;20058;-50
2023/09/01 03:42:41;;;;;;;4.05;2.22;;;18.70;68.00;;;;;;4986098;28;20051;-49
2023/09/01 03:45:08;;;;;;;2.78;2.22;;;18.70;67.90;;;;;;4990801;28;20493;-51
2023/09/01 03:47:47;;;;;;;5.38;2.58;;;18.70;68.00;;;;;;4971850;28;20817;-53
2023/09/01 03:50:14;;;;;;;2.53;2.10;;;18.70;67.90;;;;;;4976291;28;20547;-50
2023/09/01 03:52:41;;;;;;;5.10;2.65;;;18.70;67.90;;;;;;4986455;28;20116;-49
2023/09/01 03:55:08;;;;;;;4.55;2.50;;;18.70;68.00;;;;;;4974167;28;20043;-48
2023/09/01 03:57:40;;;;;;;5.50;2.47;;;18.80;68.00;;;;;;4979399;28;20082;-50
2023/09/01 04:00:10;;;;;;;14.95;4.28;;;18.80;67.90;;;;;;4974172;28;20078;-49
2023/09/01 04:02:42;;;;;;;3.45;2.40;;;18.80;67.90;;;;;;4979713;28;20126;-51
2023/09/01 04:05:09;;;;;;;3.15;2.67;;;18.80;68.10;;;;;;4977651;28;20039;-52
2023/09/01 04:07:41;;;;;;;3.83;3.25;;;18.70;68.00;;;;;;4989146;28;20117;-52
2023/09/01 04:10:12;;;;;;;4.65;2.80;;;18.80;68.30;;;;;;4977867;28;20035;-49
2023/09/01 04:12:39;;;;;;;2.55;2.30;;;18.70;68.20;;;;;;4980890;28;20074;-50
2023/09/01 04:15:09;;;;;;;4.25;2.45;;;18.80;68.40;;;;;;4979038;28;20070;-49
2023/09/01 04:17:36;;;;;;;4.22;2.70;;;18.80;68.50;;;;;;4981302;28;20047;-53
2023/09/01 04:20:07;;;;;;;6.00;3.00;;;18.80;68.60;;;;;;4971741;28;20031;-51
2023/09/01 04:22:35;;;;;;;6.10;3.27;;;18.80;68.60;;;;;;4977191;28;20054;-52
2023/09/01 04:25:02;;;;;;;3.53;2.17;;;18.80;68.70;;;;;;4971019;28;20039;-49
2023/09/01 04:27:40;;;;;;;4.93;2.60;;;18.80;68.90;;;;;;4976519;28;20122;-52
2023/09/01 04:30:10;;;;;;;9.93;3.60;;;18.80;69.30;;;;;;4971160;28;20051;-48
2023/09/01 04:32:43;;;;;;;2.58;2.35;;;18.80;69.00;;;;;;4975683;28;20134;-51
2023/09/01 04:35:11;;;;;;;4.75;2.50;;;18.80;69.10;;;;;;4978994;28;20484;-52
2023/09/01 04:37:38;;;;;;;7.05;2.55;;;18.80;69.10;;;;;;4986558;28;20502;-53
2023/09/01 04:40:07;;;;;;;3.00;2.42;;;18.80;69.20;;;;;;4995821;28;20484;-50
2023/09/01 04:42:37;;;;;;;5.73;2.70;;;18.80;69.30;;;;;;4986407;28;20101;-53
2023/09/01 04:45:06;;;;;;;3.42;2.80;;;18.80;69.40;;;;;;4972162;28;20140;-49
2023/09/01 04:47:33;;;;;;;3.80;2.60;;;18.80;69.70;;;;;;4974280;28;20763;-50
2023/09/01 04:50:00;;;;;;;5.47;2.83;;;18.90;69.80;;;;;;4970823;28;20035;-53
2023/09/01 04:52:28;;;;;;;8.27;2.72;;;18.80;69.80;;;;;;4995455;28;20047;-49
2023/09/01 04:55:09;;;;;;;4.88;2.65;;;18.80;70.00;;;;;;4966415;28;20094;-51
2023/09/01 04:57:37;;;;;;;7.72;2.97;;;18.80;70.00;;;;;;4969997;28;20058;-52
2023/09/01 05:00:15;;;;;;;4.85;2.72;;;18.80;70.10;;;;;;4983976;28;20035;-51
2023/09/01 05:02:44;;;;;;;3.83;2.70;;;18.80;70.20;;;;;;4988790;28;20042;-49
2023/09/01 05:05:12;;;;;;;3.50;2.58;;;18.80;70.30;;;;;;4974571;28;20050;-51
2023/09/01 05:07:39;;;;;;;3.08;2.40;;;18.90;70.30;;;;;;4969915;28;20042;-53
2023/09/01 05:10:08;;;;;;;4.35;2.08;;;18.90;70.90;;;;;;4990143;28;20039;-53
2023/09/01 05:12:37;;;;;;;3.28;2.15;;;18.90;70.40;;;;;;4975398;28;20043;-50
2023/09/01 05:15:05;;;;;;;3.45;2.47;;;18.90;70.40;;;;;;4980890;28;20046;-52
2023/09/01 05:17:32;;;;;;;3.03;2.65;;;18.90;70.50;;;;;;4972837;28;20042;-52
2023/09/01 05:19:59;;;;;;;5.85;2.20;;;18.90;70.40;;;;;;4976976;28;20038;-52
2023/09/01 05:22:26;;;;;;;3.47;2.40;;;18.90;70.40;;;;;;4979787;28;20429;-52
2023/09/01 05:24:56;;;;;;;3.53;2.17;;;18.90;70.60;;;;;;4991701;28;20525;-50
2023/09/01 05:27:23;;;;;;;3.25;2.38;;;18.90;71.30;;;;;;4981712;28;20051;-49
2023/09/01 05:29:50;;;;;;;3.40;2.33;;;19.00;70.90;;;;;;4969206;28;20049;-52
2023/09/01 05:32:17;;;;;;;4.25;2.83;;;19.00;70.90;;;;;;4970895;28;20109;-52
2023/09/01 05:34:44;;;;;;;4.78;2.65;;;19.00;71.00;;;;;;4988338;28;20053;-50
2023/09/01 05:37:12;;;;;;;3.53;2.20;;;19.00;71.00;;;;;;4993053;28;20046;-53
2023/09/01 05:39:39;;;;;;;5.93;2.38;;;19.00;71.00;;;;;;4985613;28;20727;-53
2023/09/01 05:42:07;;;;;;;2.95;2.30;;;19.10;71.00;;;;;;4981768;28;20047;-52
2023/09/01 05:44:35;;;;;;;4.50;2.13;;;19.10;70.90;;;;;;4993543;28;20051;-51
2023/09/01 05:47:03;;;;;;;3.08;2.35;;;19.10;70.90;;;;;;4987415;28;20126;-52
2023/09/01 05:49:32;;;;;;;3.08;2.20;;;19.10;70.80;;;;;;4981504;28;20129;-53
2023/09/01 05:51:59;;;;;;;3.35;2.40;;;19.10;70.90;;;;;;4985378;28;20043;-53
2023/09/01 05:54:26;;;;;;;6.47;2.33;;;19.10;70.80;;;;;;4972627;28;20544;-50
2023/09/01 05:56:54;;;;;;;3.65;2.40;;;19.20;71.00;;;;;;4967839;28;20069;-49
2023/09/01 05:59:23;;;;;;;2.70;2.47;;;19.20;71.20;;;;;;4964798;28;20086;-52
2023/09/01 06:01:50;;;;;;;2.63;1.90;;;19.20;71.20;;;;;;4974100;28;20050;-52
2023/09/01 06:04:16;;;;;;;3.25;2.30;;;19.20;70.90;;;;;;4978300;28;20546;-53
2023/09/01 06:06:43;;;;;;;2.28;1.73;;;19.20;70.60;;;;;;4974449;28;20058;-49
2023/09/01 06:09:10;;;;;;;2.53;2.03;;;19.30;70.70;;;;;;4965547;28;20070;-53
2023/09/01 06:11:37;;;;;;;2.92;2.08;;;19.30;70.70;;;;;;4968811;28;20043;-52
2023/09/01 06:14:03;;;;;;;5.72;2.55;;;19.30;70.70;;;;;;4978157;28;20576;-52
2023/09/01 06:16:30;;;;;;;5.30;2.20;;;19.30;70.70;;;;;;4975526;28;20114;-53
2023/09/01 06:19:02;;;;;;;2.97;1.98;;;19.40;70.80;;;;;;4976742;28;20045;-53
2023/09/01 06:21:30;;;;;;;;;;;19.40;71.00;;;;;;4964546;28;20138;-52
2023/09/01 06:23:57;;;;;;;4.22;1.70;;;19.50;71.00;;;;;;4974521;28;19922;-51
2023/09/01 06:26:24;;;;;;;3.63;2.35;;;19.50;70.30;;;;;;4977746;28;20047;-50
2023/09/01 06:28:50;;;;;;;2.58;2.15;;;19.50;70.40;;;;;;4976223;28;20043;-52
2023/09/01 06:31:17;;;;;;;3.03;1.95;;;19.50;70.50;;;;;;4972106;28;20501;-51
2023/09/01 06:33:44;;;;;;;2.53;1.98;;;19.50;70.60;;;;;;4981534;28;20050;-53
2023/09/01 06:36:13;;;;;;;2.20;1.98;;;19.50;70.50;;;;;;4979643;28;21436;-53
2023/09/01 06:38:40;;;;;;;3.85;2.00;;;19.50;70.60;;;;;;4978091;28;20053;-52
2023/09/01 06:41:08;;;;;;;3.25;2.08;;;19.50;70.70;;;;;;4981643;28;20073;-52
2023/09/01 06:43:35;;;;;;;3.85;2.10;;;19.50;70.80;;;;;;4975806;28;20042;-52
2023/09/01 06:46:02;;;;;;;3.22;2.28;;;19.60;70.90;;;;;;4978377;28;20551;-51
2023/09/01 06:48:30;;;;;;;3.70;1.52;;;19.60;71.00;;;;;;4966319;28;20042;-52
2023/09/01 06:51:02;;;;;;;3.63;2.20;;;19.60;71.00;;;;;;4972372;28;20126;-53
2023/09/01 06:53:28;;;;;;;3.47;2.10;;;19.70;71.10;;;;;;4967215;28;20047;-51
2023/09/01 06:55:55;;;;;;;2.97;1.70;;;19.70;71.00;;;;;;4972956;28;20106;-51
2023/09/01 06:58:22;;;;;;;3.53;1.98;;;19.70;71.10;;;;;;4970904;28;20062;-50
2023/09/01 07:00:51;;;;;;;3.42;2.00;;;19.80;71.10;;;;;;4970992;28;20108;-52
2023/09/01 07:03:21;;;;;;;2.30;2.00;;;19.80;71.10;;;;;;4980258;28;20112;-53
2023/09/01 07:06:00;;;;;;;2.67;2.15;;;19.90;70.90;;;;;;4973718;28;20035;-51
2023/09/01 07:08:28;;;;;;;4.28;1.80;;;20.00;71.40;;;;;;4970008;28;20070;-53
2023/09/01 07:11:09;;;;;;;2.05;1.85;;;20.00;70.90;;;;;;4971243;28;20089;-53
2023/09/01 07:13:36;;;;;;;11.18;3.35;;;20.10;71.40;;;;;;4968383;28;20090;-51
2023/09/01 07:16:03;;;;;;;3.60;1.98;;;20.10;71.00;;;;;;4976601;28;20503;-52
2023/09/01 07:18:30;;;;;;;4.60;1.90;;;20.20;71.10;;;;;;4971794;28;20109;-53
2023/09/01 07:20:58;;;;;;;2.78;1.77;;;20.20;70.90;;;;;;4970250;28;20088;-50
2023/09/01 07:23:25;;;;;;;3.80;1.98;;;20.30;70.70;;;;;;4969389;28;20113;-53
2023/09/01 07:25:53;;;;;;;3.65;1.65;;;20.30;70.60;;;;;;4970484;28;20114;-53
2023/09/01 07:28:22;;;;;;;2.38;2.17;;;20.30;70.70;;;;;;4970924;28;20035;-53
2023/09/01 07:30:49;;;;;;;2.53;2.20;;;20.30;70.80;;;;;;4970230;28;20062;-51
2023/09/01 07:33:16;;;;;;;4.72;2.03;;;20.30;70.70;;;;;;4984808;28;20097;-49
2023/09/01 07:35:47;;;;;;;3.17;2.03;;;20.40;70.90;;;;;;4988080;28;20445;-53
2023/09/01 07:38:15;;;;;;;3.47;2.35;;;20.40;70.90;;;;;;4973015;28;20038;-52
2023/09/01 07:40:45;;;;;;;2.58;1.70;;;20.50;70.70;;;;;;4983181;28;20104;-52
2023/09/01 07:43:12;;;;;;;2.38;2.17;;;20.50;70.50;;;;;;4987820;28;20500;-51
2023/09/01 07:45:39;;;;;;;3.88;2.28;;;20.50;70.50;;;;;;4987457;28;20085;-53
2023/09/01 07:48:06;;;;;;;2.90;2.00;;;20.50;70.50;;;;;;4982001;28;20038;-51
2023/09/01 07:50:48;;;;;;;2.92;2.13;;;20.40;70.50;;;;;;4987604;28;20117;-52
2023/09/01 07:53:14;;;;;;;2.30;2.10;;;20.50;70.70;;;;;;4987569;28;20113;-52
2023/09/01 07:55:41;;;;;;;4.80;3.20;;;20.40;70.80;;;;;;4976513;28;20118;-52
2023/09/01 07:58:08;;;;;;;3.13;1.95;;;20.40;70.90;;;;;;4987777;28;20038;-53
2023/09/01 08:00:37;;;;;;;3.63;2.70;;;20.40;71.10;;;;;;4968253;28;20473;-53
2023/09/01 08:03:04;;;;;;;2.55;1.90;;;20.40;71.20;;;;;;4975421;28;20046;-52
2023/09/01 08:05:30;;;;;;;3.15;2.30;;;20.50;71.50;;;;;;4976324;28;20125;-53
2023/09/01 08:08:00;;;;;;;3.58;2.00;;;20.40;71.40;;;;;;4977290;28;20486;-52
2023/09/01 08:10:27;;;;;;;3.90;2.20;;;20.50;71.50;;;;;;4972199;28;20050;-51
2023/09/01 08:12:53;;;;;;;2.60;1.92;;;20.50;71.50;;;;;;4975222;28;20066;-52
2023/09/01 08:15:20;;;;;;;2.28;1.73;;;20.50;71.20;;;;;;4975884;28;20038;-47
2023/09/01 08:17:49;;;;;;;2.50;2.30;;;20.50;71.20;;;;;;4983007;28;20038;-52
2023/09/01 08:20:17;;;;;;;2.60;2.05;;;20.50;71.30;;;;;;4977655;28;20039;-52
2023/09/01 08:22:44;;;;;;;2.53;1.70;;;20.50;71.40;;;;;;4975094;28;20094;-53
2023/09/01 08:25:10;;;;;;;1.73;1.63;;;20.50;71.50;;;;;;4976652;28;20039;-51
2023/09/01 08:27:37;;;;;;;1.92;1.83;;;20.50;71.30;;;;;;4980016;28;20077;-52
2023/09/01 08:30:04;;;;;;;1.95;1.75;;;20.50;71.50;;;;;;4974846;28;20508;-52
2023/09/01 08:32:32;;;;;;;3.28;1.92;;;20.50;71.70;;;;;;4991385;28;20564;-53
2023/09/01 08:35:03;;;;;;;3.55;1.83;;;20.40;71.60;;;;;;4982230;28;20046;-53
2023/09/01 08:37:29;;;;;;;1.67;1.58;;;20.40;71.90;;;;;;4977207;28;20047;-52
2023/09/01 08:39:56;;;;;;;1.95;1.75;;;20.40;72.00;;;;;;4985281;28;20062;-52
2023/09/01 08:42:25;;;;;;;3.20;1.65;;;20.30;72.50;;;;;;4985541;28;20133;-53
2023/09/01 08:44:53;;;;;;;3.53;1.55;;;20.30;72.70;;;;;;4979523;28;20042;-52
2023/09/01 08:47:23;;;;;;;1.65;1.52;;;20.20;72.60;;;;;;4975556;28;20158;-50
2023/09/01 08:49:52;;;;;;;3.40;1.73;;;20.30;72.70;;;;;;4978524;28;20046;-52
2023/09/01 08:52:19;;;;;;;2.53;1.50;;;20.20;72.90;;;;;;4985128;28;20293;-50
2023/09/01 08:54:46;;;;;;;3.33;1.80;;;20.20;73.00;;;;;;4985494;28;20045;-52
2023/09/01 08:57:13;;;;;;;1.85;1.23;;;20.20;73.50;;;;;;4972203;28;20042;-53
2023/09/01 08:59:42;;;;;;;1.80;1.60;;;20.10;73.50;;;;;;4978704;28;20579;-49
2023/09/01 09:02:10;;;;;;;0.95;0.95;;;20.10;73.60;;;;;;4981928;28;20528;-51
2023/09/01 09:04:37;;;;;;;1.90;1.67;;;20.10;73.60;;;;;;4983813;28;20051;-51
2023/09/01 09:07:18;;;;;;;1.80;1.40;;;20.00;73.60;;;;;;4972605;28;20050;-51
2023/09/01 09:09:53;;;;;;;2.60;1.60;;;20.00;74.60;;;;;;4971580;28;20129;-52
2023/09/01 09:12:21;;;;;;;1.60;1.50;;;20.00;74.40;;;;;;4973675;28;20039;-52
2023/09/01 09:14:52;;;;;;;1.95;1.55;;;20.00;74.20;;;;;;4969592;28;20058;-53
2023/09/01 09:17:43;;;;;;;2.35;1.40;;;20.00;74.60;;;;;;4971533;28;20113;-50
2023/09/01 09:20:14;;;;;;;3.33;1.33;;;20.00;75.30;;;;;;4972047;28;20039;-52
2023/09/01 09:23:00;;;;;;;1.33;1.23;;;19.90;74.50;;;;;;4972003;28;20053;-52
2023/09/01 09:25:30;;;;;;;3.33;1.40;;;19.90;75.80;;;;;;4970467;28;20050;-49
2023/09/01 09:28:11;;;;;;;5.03;2.05;;;19.90;75.10;;;;;;4994753;23;20046;-52
2023/09/01 09:30:52;;;;;;;1.70;1.60;;;19.90;75.70;;;;;;4975150;28;20116;-47
2023/09/01 09:33:33;;;;;;;4.53;1.63;;;19.90;76.40;;;;;;4978041;28;20054;-49
2023/09/01 09:36:00;;;;;;;2.15;1.52;;;19.90;76.30;;;;;;4964260;28;20501;-50
2023/09/01 09:38:49;;;;;;;1.55;1.10;;;19.90;75.80;;;;;;4967761;28;20043;-48
2023/09/01 09:41:16;;;;;;;1.95;1.38;;;19.90;76.30;;;;;;4972594;28;20049;-50
2023/09/01 09:43:47;;;;;;;1.88;1.30;;;19.90;75.80;;;;;;4968510;28;20126;-49
2023/09/01 09:46:16;;;;;;;2.75;1.20;;;20.00;76.60;;;;;;4967040;28;20149;-52
2023/09/01 09:48:43;;;;;;;2.28;1.60;;;20.00;76.50;;;;;;4967243;28;20053;-51
2023/09/01 09:51:11;;;;;;;2.80;1.33;;;20.00;76.80;;;;;;4965788;28;20073;-52
2023/09/01 09:53:39;;;;;;;1.88;1.20;;;20.10;76.80;;;;;;4966396;28;20047;-49
2023/09/01 09:56:32;;;;;;;2.50;1.10;;;20.10;77.00;;;;;;4967317;28;20441;-53
2023/09/01 09:59:03;;;;;;;1.90;1.05;;;20.20;78.00;;;;;;4966119;28;20047;-49
2023/09/01 10:01:34;;;;;;;1.27;1.07;;;20.20;77.40;;;;;;4960353;28;20074;-49
2023/09/01 10:04:05;;;;;;;2.38;0.95;;;20.30;77.10;;;;;;4968992;28;20050;-52
2023/09/01 10:06:34;;;;;;;1.95;1.30;;;20.30;77.10;;;;;;4966615;28;20046;-48
2023/09/01 10:09:05;;;;;;;2.00;0.80;;;20.30;76.80;;;;;;4969260;28;20117;-51
2023/09/01 10:11:32;;;;;;;1.00;0.85;;;20.40;77.00;;;;;;4969488;28;20402;-52
2023/09/01 10:14:02;;;;;;;1.27;1.17;;;20.40;76.70;;;;;;4967079;28;20101;-50
2023/09/01 10:16:30;;;;;;;2.78;0.93;;;20.50;76.80;;;;;;4966428;28;20126;-50
2023/09/01 10:18:58;;;;;;;1.42;0.95;;;20.60;77.00;;;;;;4966002;28;20031;-50
2023/09/01 10:21:25;;;;;;;3.10;0.90;;;20.60;77.00;;;;;;4966442;28;20077;-53
2023/09/01 10:23:52;;;;;;;2.13;1.00;;;20.60;77.10;;;;;;4962519;28;20046;-49
2023/09/01 10:26:28;;;;;;;1.85;1.27;;;20.70;77.20;;;;;;4966152;28;20121;-50
2023/09/01 10:28:56;;;;;;;1.48;1.13;;;20.70;77.30;;;;;;4968649;28;20046;-49
2023/09/01 10:31:24;;;;;;;1.30;0.88;;;20.80;77.20;;;;;;4970008;28;20043;-49
2023/09/01 10:34:12;;;;;;;1.85;1.02;;;20.80;77.20;;;;;;4964644;28;20043;-50
2023/09/01 10:36:43;;;;;;;1.00;0.90;;;20.80;78.00;;;;;;4968233;28;20932;-51
2023/09/01 10:39:16;;;;;;;2.37;1.03;;;20.80;77.30;;;;;;4970217;28;20109;-49
2023/09/01 10:42:02;;;;;;;2.78;1.10;;;20.80;77.40;;;;;;4970055;28;20047;-50
2023/09/01 10:44:44;;;;;;;2.47;1.15;;;20.80;77.80;;;;;;4962336;28;20429;-52
2023/09/01 10:47:32;;;;;;;2.50;1.25;;;20.80;78.30;;;;;;4967482;28;20141;-51
2023/09/01 10:50:02;;;;;;;1.73;1.35;;;20.80;78.00;;;;;;4955825;28;20523;-50
2023/09/01 10:52:31;;;;;;;1.20;1.02;;;20.80;77.30;;;;;;4962280;28;20516;-51
2023/09/01 10:55:02;;;;;;;1.17;1.08;;;20.80;77.10;;;;;;4964106;28;20043;-52
2023/09/01 10:57:42;;;;;;;1.35;0.93;;;20.70;77.30;;;;;;4970753;28;20046;-52
2023/09/01 11:00:32;;;;;;;1.70;0.88;;;20.70;78.10;;;;;;4968930;28;20471;-49
2023/09/01 11:03:31;;;;;;;1.10;0.90;;;20.80;78.60;;;;;;4961960;28;20047;-53
2023/09/01 11:05:59;;;;;;;1.02;0.60;;;20.80;78.90;;;;;;4967254;28;20441;-52
2023/09/01 11:08:25;;;;;;;1.92;0.47;;;20.80;77.90;;;;;;4978828;28;20097;-50
2023/09/01 11:10:55;;;;;;;1.17;0.55;;;20.80;78.00;;;;;;4973906;28;20587;-51
2023/09/01 11:13:25;;;;;;;1.17;0.57;;;20.90;78.10;;;;;;4977250;28;20049;-49
2023/09/01 11:15:52;;;;;;;0.88;0.50;;;20.90;78.10;;;;;;4968441;28;20066;-53
2023/09/01 11:18:21;;;;;;;0.68;0.68;;;21.00;78.40;;;;;;4969043;28;20095;-51
2023/09/01 11:20:49;;;;;;;0.90;0.73;;;21.10;78.60;;;;;;4962538;28;20070;-54
2023/09/01 11:23:22;;;;;;;0.60;0.57;;;21.10;78.60;;;;;;4961621;28;20118;-50
2023/09/01 11:25:59;;;;;;;0.40;0.40;;;21.20;78.90;;;;;;4964042;28;20394;-51
2023/09/01 11:28:28;;;;;;;1.05;0.40;;;21.30;78.80;;;;;;4968419;28;20584;-52
2023/09/01 11:30:56;;;;;;;0.65;0.45;;;21.40;78.20;;;;;;4972948;28;20047;-49
2023/09/01 11:33:24;;;;;;;0.85;0.40;;;21.50;78.00;;;;;;4962195;28;20134;-51
2023/09/01 11:36:05;;;;;;;1.45;0.50;;;21.60;77.80;;;;;;4963881;28;20409;-52
2023/09/01 11:38:32;;;;;;;0.43;0.38;;;21.70;78.10;;;;;;4967265;28;20043;-52
2023/09/01 11:41:03;;;;;;;0.73;0.60;;;21.70;77.20;;;;;;4961557;28;20035;-49
2023/09/01 11:43:31;;;;;;;0.73;0.52;;;21.80;77.20;;;;;;4962744;28;20075;-51
2023/09/01 11:45:58;;;;;;;1.35;0.63;;;21.90;77.00;;;;;;4966270;28;20094;-49
2023/09/01 11:48:29;;;;;;;1.13;0.73;;;21.90;76.80;;;;;;4969045;28;20043;-52
2023/09/01 11:50:58;;;;;;;0.70;0.60;;;22.00;76.50;;;;;;4964804;28;20053;-51
2023/09/01 11:53:34;;;;;;;1.92;0.60;;;22.00;76.50;;;;;;4977085;28;20047;-50
2023/09/01 11:56:22;;;;;;;0.57;0.40;;;22.10;76.80;;;;;;4961304;28;20060;-49
2023/09/01 11:58:50;;;;;;;1.00;0.40;;;22.20;76.70;;;;;;4968356;28;20062;-50
2023/09/01 12:01:21;;;;;;;0.30;0.30;;;22.20;76.20;;;;;;4966438;28;20074;-52
2023/09/01 12:03:50;;;;;;;0.40;0.40;;;22.30;76.20;;;;;;4965362;28;20517;-54
2023/09/01 12:06:27;;;;;;;0.98;0.88;;;22.30;76.00;;;;;;4967930;28;20046;-54
2023/09/01 12:09:13;;;;;;;1.35;0.30;;;22.40;76.20;;;;;;4968040;28;20585;-53
2023/09/01 12:11:56;;;;;;;2.35;0.68;;;22.40;75.90;;;;;;4966618;28;20045;-52
2023/09/01 12:14:27;;;;;;;0.35;0.35;;;22.50;76.00;;;;;;4967813;28;20053;-54
2023/09/01 12:16:54;;;;;;;0.77;0.30;;;22.60;75.70;;;;;;4967967;28;20418;-51
2023/09/01 12:19:23;;;;;;;0.35;0.35;;;22.60;75.70;;;;;;4969024;28;20122;-49
2023/09/01 12:21:51;;;;;;;0.57;0.40;;;22.70;76.00;;;;;;4970503;28;20046;-51
2023/09/01 12:24:18;;;;;;;1.05;0.43;;;22.80;76.20;;;;;;4971674;28;20457;-49
2023/09/01 12:26:45;;;;;;;0.60;0.40;;;22.90;76.00;;;;;;4977423;28;20043;-52
2023/09/01 12:29:14;;;;;;;0.32;0.32;;;23.00;76.10;;;;;;4975468;28;20093;-53
2023/09/01 12:31:42;;;;;;;0.45;0.30;;;23.20;76.40;;;;;;4969016;28;20131;-52
2023/09/01 12:34:09;;;;;;;0.40;0.40;;;23.30;76.30;;;;;;4970018;28;20113;-50
2023/09/01 12:36:36;;;;;;;0.28;0.28;;;23.50;75.40;;;;;;4970853;28;20042;-51
2023/09/01 12:39:03;;;;;;;0.57;0.40;;;23.70;75.20;;;;;;4969750;28;20096;-48
2023/09/01 12:41:29;;;;;;;0.55;0.30;;;23.90;74.90;;;;;;4969111;28;20101;-52
2023/09/01 12:43:56;;;;;;;0.30;0.30;;;24.10;73.90;;;;;;4975936;28;20105;-54
2023/09/01 12:46:23;;;;;;;0.30;0.30;;;24.30;73.60;;;;;;4971781;28;20126;-51
2023/09/01 12:48:49;;;;;;;0.65;0.40;;;24.50;72.90;;;;;;4972778;28;20623;-52
2023/09/01 12:51:16;;;;;;;0.88;0.60;;;24.80;72.70;;;;;;4961156;28;20105;-53
2023/09/01 12:53:44;;;;;;;0.55;0.50;;;25.00;71.50;;;;;;4971468;28;20063;-52
2023/09/01 12:56:11;;;;;;;0.65;0.65;;;25.30;70.40;;;;;;4968689;28;20137;-50
2023/09/01 12:58:38;;;;;;;0.85;0.30;;;25.50;69.90;;;;;;4967261;28;20516;-51
2023/09/01 13:01:05;;;;;;;0.80;0.25;;;25.60;68.40;;;;;;4968279;28;20043;-51
2023/09/01 13:03:32;;;;;;;0.30;0.30;;;25.80;68.30;;;;;;4970750;28;20130;-51